Time;durP1;ratioP1;P1;durP2;ratioP2;P2;SDS_P1;SDS_P2;PMS_P1;PMS_P2;Temp;Humidity;BMP_temperature;BMP_pressure;BME280_temperature;BME280_humidity;BME280_pressure;Samples;Min_cycle;Max_cycle;Signal;HPM_P1;HPM_P2
2022/07/25 00:01:16;;;;;;;;;;;;;;;;;;5029111;28;19921;-86
2022/07/25 00:03:41;;;;;;;;;;;;;;;;;;5026866;28;20314;-86
2022/07/25 00:06:06;;;;;;;;;;;;;;;;;;5028593;28;20329;-86
2022/07/25 00:08:31;;;;;;;;;;;;;;;;;;5026783;28;19913;-86
2022/07/25 00:10:56;;;;;;;;;;;;;;;;;;5027782;28;19917;-86
2022/07/25 00:13:22;;;;;;;;;;;;;;;;;;5008171;28;20208;-86
2022/07/25 00:15:47;;;;;;;;;;;;;;;;;;5029083;28;19920;-86
2022/07/25 00:18:12;;;;;;;;;;;;;;;;;;5026895;28;19913;-86
2022/07/25 00:20:37;;;;;;;;;;;;;;;;;;5028222;28;19917;-87
2022/07/25 00:23:02;;;;;;;;;;;;;;;;;;5023981;28;19940;-86
2022/07/25 00:25:28;;;;;;;;;;;;;;;;;;5025374;28;19971;-86
2022/07/25 00:27:53;;;;;;;;;;;;;;;;;;5026508;28;19913;-86
2022/07/25 00:30:18;;;;;;;;;;;;;;;;;;5027810;28;19917;-85
2022/07/25 00:32:43;;;;;;;;;;;;;;;;;;5026132;28;20326;-86
2022/07/25 00:35:08;;;;;;;;;;;;;;;;;;5027604;28;20028;-86
2022/07/25 00:37:34;;;;;;;;;;;;;;;;;;5027544;28;19971;-86
2022/07/25 00:39:59;;;;;;;;;;;;;;;;;;5028192;28;19925;-85
2022/07/25 00:42:24;;;;;;;;;;;;;;;;;;5025486;28;19913;-86
2022/07/25 00:44:50;;;;;;;;;;;;;;;;;;5025844;28;19945;-86
2022/07/25 00:47:15;;;;;;;;;;;;;;;;;;5008963;28;19968;-86
2022/07/25 00:49:40;;;;;;;;;;;;;;;;;;5026126;28;20296;-86
2022/07/25 00:52:05;;;;;;;;;;;;;;;;;;5024414;28;20205;-86
2022/07/25 00:54:30;;;;;;;;;;;;;;;;;;5028188;28;19936;-86
2022/07/25 00:56:55;;;;;;;;;;;;;;;;;;5026525;28;20398;-86
2022/07/25 00:59:21;;;;;;;;;;;;;;;;;;5024134;28;19913;-86
2022/07/25 01:01:48;;;;;;;;;;;;;;;;;;5024793;28;20322;-85
2022/07/25 01:04:13;;;;;;;;;;;;;;;;;;5026813;28;19921;-86
2022/07/25 01:06:39;;;;;;;;;;;;;;;;;;5026659;28;19917;-86
2022/07/25 01:09:04;;;;;;;;;;;;;;;;;;5025937;28;19917;-86
2022/07/25 01:11:29;;;;;;;;;;;;;;;;;;5024614;28;19921;-86
2022/07/25 01:13:54;;;;;;;;;;;;;;;;;;5026656;28;19921;-85
2022/07/25 01:16:19;;;;;;;;;;;;;;;;;;5006985;28;19921;-86
2022/07/25 01:18:44;;;;;;;;;;;;;;;;;;5027389;28;20334;-86
2022/07/25 01:21:10;;;;;;;;;;;;;;;;;;5027199;28;19987;-87
2022/07/25 01:23:35;;;;;;;;;;;;;;;;;;5025890;28;19941;-85
2022/07/25 01:26:00;;;;;;;;;;;;;;;;;;5025046;28;19945;-86
2022/07/25 01:28:25;;;;;;;;;;;;;;;;;;5024440;28;19920;-86
2022/07/25 01:30:50;;;;;;;;;;;;;;;;;;5024834;28;19982;-86
2022/07/25 01:33:15;;;;;;;;;;;;;;;;;;5025719;28;20685;-86
2022/07/25 01:35:41;;;;;;;;;;;;;;;;;;5025922;28;19913;-86
2022/07/25 01:38:06;;;;;;;;;;;;;;;;;;5026982;28;19928;-85
2022/07/25 01:40:31;;;;;;;;;;;;;;;;;;5008123;28;19983;-86
2022/07/25 01:42:56;;;;;;;;;;;;;;;;;;5022756;28;19913;-85
2022/07/25 01:45:21;;;;;;;;;;;;;;;;;;5025919;28;19913;-85
2022/07/25 01:47:46;;;;;;;;;;;;;;;;;;5025256;28;20353;-86
2022/07/25 01:50:12;;;;;;;;;;;;;;;;;;5027028;28;19923;-86
2022/07/25 01:52:38;;;;;;;;;;;;;;;;;;5025755;28;19917;-86
2022/07/25 01:55:03;;;;;;;;;;;;;;;;;;5025525;28;19921;-86
2022/07/25 01:57:28;;;;;;;;;;;;;;;;;;5024748;28;19949;-85
2022/07/25 01:59:53;;;;;;;;;;;;;;;;;;5024516;28;19913;-86
2022/07/25 02:02:19;;;;;;;;;;;;;;;;;;5024179;28;19921;-85
2022/07/25 02:04:44;;;;;;;;;;;;;;;;;;5026724;28;19921;-86
2022/07/25 02:07:09;;;;;;;;;;;;;;;;;;5024018;28;20145;-85
2022/07/25 02:09:34;;;;;;;;;;;;;;;;;;5025361;28;19920;-85
2022/07/25 02:11:59;;;;;;;;;;;;;;;;;;5020988;28;19931;-85
2022/07/25 02:14:25;;;;;;;;;;;;;;;;;;5024340;28;19913;-85
2022/07/25 02:16:50;;;;;;;;;;;;;;;;;;5027021;28;20271;-86
2022/07/25 02:19:15;;;;;;;;;;;;;;;;;;5026196;28;19917;-85
2022/07/25 02:21:40;;;;;;;;;;;;;;;;;;5026530;28;19959;-86
2022/07/25 02:24:06;;;;;;;;;;;;;;;;;;5025010;28;20037;-85
2022/07/25 02:26:31;;;;;;;;;;;;;;;;;;5024370;28;20008;-86
2022/07/25 02:28:56;;;;;;;;;;;;;;;;;;5026835;28;20326;-85
2022/07/25 02:31:21;;;;;;;;;;;;;;;;;;5024682;28;19924;-85
2022/07/25 02:33:46;;;;;;;;;;;;;;;;;;5026825;28;19914;-85
2022/07/25 02:36:12;;;;;;;;;;;;;;;;;;5024789;28;20371;-85
2022/07/25 02:38:37;;;;;;;;;;;;;;;;;;5025255;28;19917;-85
2022/07/25 02:41:02;;;;;;;;;;;;;;;;;;5026208;28;19929;-85
2022/07/25 02:43:27;;;;;;;;;;;;;;;;;;5023642;28;19935;-85
2022/07/25 02:45:52;;;;;;;;;;;;;;;;;;5026909;28;20018;-85
2022/07/25 02:48:17;;;;;;;;;;;;;;;;;;5023856;28;19917;-85
2022/07/25 02:50:43;;;;;;;;;;;;;;;;;;5008708;28;20020;-85
2022/07/25 02:53:08;;;;;;;;;;;;;;;;;;5007587;28;19917;-85
2022/07/25 02:55:33;;;;;;;;;;;;;;;;;;5024195;28;19921;-85
2022/07/25 02:57:58;;;;;;;;;;;;;;;;;;5025962;28;19923;-86
2022/07/25 03:00:23;;;;;;;;;;;;;;;;;;5024684;28;19948;-85
2022/07/25 03:02:48;;;;;;;;;;;;;;;;;;5022871;28;19913;-85
2022/07/25 03:05:14;;;;;;;;;;;;;;;;;;5025097;28;19913;-85
2022/07/25 03:07:39;;;;;;;;;;;;;;;;;;5022564;28;20052;-86
2022/07/25 03:10:04;;;;;;;;;;;;;;;;;;5026067;28;20289;-85
2022/07/25 03:12:31;;;;;;;;;;;;;;;;;;5024939;28;20149;-86
2022/07/25 03:14:56;;;;;;;;;;;;;;;;;;5026169;28;19917;-85
2022/07/25 03:17:22;;;;;;;;;;;;;;;;;;5024535;28;19963;-86
2022/07/25 03:19:47;;;;;;;;;;;;;;;;;;5026495;28;20008;-85
2022/07/25 03:22:12;;;;;;;;;;;;;;;;;;5023148;28;19913;-85
2022/07/25 03:24:37;;;;;;;;;;;;;;;;;;5028037;28;19923;-85
2022/07/25 03:27:03;;;;;;;;;;;;;;;;;;5027716;28;19921;-85
2022/07/25 03:29:28;;;;;;;;;;;;;;;;;;5029938;28;20432;-85
2022/07/25 03:31:53;;;;;;;;;;;;;;;;;;5027135;28;19932;-85
2022/07/25 03:34:18;;;;;;;;;;;;;;;;;;5029122;28;19917;-85
2022/07/25 03:36:43;;;;;;;;;;;;;;;;;;5028840;28;19944;-85
2022/07/25 03:39:09;;;;;;;;;;;;;;;;;;5026445;28;19919;-85
2022/07/25 03:41:34;;;;;;;;;;;;;;;;;;5029877;28;19967;-85
2022/07/25 03:43:59;;;;;;;;;;;;;;;;;;5026041;28;19917;-85
2022/07/25 03:46:24;;;;;;;;;;;;;;;;;;5029365;28;19967;-85
2022/07/25 03:48:49;;;;;;;;;;;;;;;;;;5028403;28;19917;-85
2022/07/25 03:51:15;;;;;;;;;;;;;;;;;;5028853;28;19929;-85
2022/07/25 03:56:24;;;;;;;;;;;;;;;;;;5029270;28;20013;-85
2022/07/25 03:58:49;;;;;;;;;;;;;;;;;;5026885;28;20011;-85
2022/07/25 04:01:14;;;;;;;;;;;;;;;;;;5028262;28;19932;-85
2022/07/25 04:03:39;;;;;;;;;;;;;;;;;;5027842;28;19971;-85
2022/07/25 04:06:04;;;;;;;;;;;;;;;;;;5029220;28;19924;-85
2022/07/25 04:08:29;;;;;;;;;;;;;;;;;;5024750;28;20285;-86
2022/07/25 04:10:55;;;;;;;;;;;;;;;;;;5028747;28;19921;-85
2022/07/25 04:13:20;;;;;;;;;;;;;;;;;;5008070;28;19917;-85
2022/07/25 04:15:45;;;;;;;;;;;;;;;;;;5028686;28;20311;-85
2022/07/25 04:18:10;;;;;;;;;;;;;;;;;;5027417;28;19917;-85
2022/07/25 04:20:36;;;;;;;;;;;;;;;;;;5028777;28;19921;-85
2022/07/25 04:23:01;;;;;;;;;;;;;;;;;;5026411;28;19913;-85
2022/07/25 04:25:26;;;;;;;;;;;;;;;;;;5026552;28;20373;-85
2022/07/25 04:27:51;;;;;;;;;;;;;;;;;;5028540;28;19913;-85
2022/07/25 04:30:17;;;;;;;;;;;;;;;;;;5027632;28;19929;-85
2022/07/25 04:32:42;;;;;;;;;;;;;;;;;;5026889;28;20004;-85
2022/07/25 04:35:07;;;;;;;;;;;;;;;;;;5027660;28;19913;-85
2022/07/25 04:37:34;;;;;;;;;;;;;;;;;;5023633;28;20412;-85
2022/07/25 04:40:00;;;;;;;;;;;;;;;;;;5027686;28;19974;-84
2022/07/25 04:42:25;;;;;;;;;;;;;;;;;;5026869;28;19913;-84
2022/07/25 04:44:50;;;;;;;;;;;;;;;;;;5028132;28;20116;-84
2022/07/25 04:47:15;;;;;;;;;;;;;;;;;;5027714;28;19925;-85
2022/07/25 04:49:40;;;;;;;;;;;;;;;;;;5028112;28;19913;-84
2022/07/25 04:52:05;;;;;;;;;;;;;;;;;;5025649;28;19921;-84
2022/07/25 04:54:31;;;;;;;;;;;;;;;;;;5026754;28;20051;-84
2022/07/25 04:56:56;;;;;;;;;;;;;;;;;;5009060;28;19913;-84
2022/07/25 04:59:21;;;;;;;;;;;;;;;;;;5026028;28;19936;-84
2022/07/25 05:01:46;;;;;;;;;;;;;;;;;;5028095;28;20317;-86
2022/07/25 05:04:11;;;;;;;;;;;;;;;;;;5026839;28;20367;-84
2022/07/25 05:06:36;;;;;;;;;;;;;;;;;;5025148;28;19921;-84
2022/07/25 05:09:02;;;;;;;;;;;;;;;;;;5024956;28;21275;-84
2022/07/25 05:11:27;;;;;;;;;;;;;;;;;;5027098;28;20019;-84
2022/07/25 05:13:52;;;;;;;;;;;;;;;;;;5025806;28;19995;-84
2022/07/25 05:16:17;;;;;;;;;;;;;;;;;;5025989;28;19924;-84
2022/07/25 05:18:42;;;;;;;;;;;;;;;;;;5025643;28;19979;-84
2022/07/25 05:21:08;;;;;;;;;;;;;;;;;;5027434;28;19919;-84
2022/07/25 05:23:33;;;;;;;;;;;;;;;;;;5024314;28;20273;-84
2022/07/25 05:25:58;;;;;;;;;;;;;;;;;;5027199;28;19920;-85
2022/07/25 05:28:23;;;;;;;;;;;;;;;;;;5024986;28;19917;-85
2022/07/25 05:30:48;;;;;;;;;;;;;;;;;;5024311;28;19924;-84
2022/07/25 05:33:13;;;;;;;;;;;;;;;;;;5025025;28;19913;-85
2022/07/25 05:35:39;;;;;;;;;;;;;;;;;;5027078;28;19923;-84
2022/07/25 05:38:04;;;;;;;;;;;;;;;;;;5019901;28;20346;-84
2022/07/25 05:40:29;;;;;;;;;;;;;;;;;;5027965;28;19916;-85
2022/07/25 05:42:54;;;;;;;;;;;;;;;;;;5023550;28;19920;-84
2022/07/25 05:45:19;;;;;;;;;;;;;;;;;;5026789;28;20461;-85
2022/07/25 05:47:44;;;;;;;;;;;;;;;;;;5026028;28;19921;-85
2022/07/25 05:50:10;;;;;;;;;;;;;;;;;;5008322;28;19916;-84
2022/07/25 05:52:35;;;;;;;;;;;;;;;;;;5024799;28;19967;-84
2022/07/25 05:55:00;;;;;;;;;;;;;;;;;;5026274;28;19988;-85
2022/07/25 05:57:25;;;;;;;;;;;;;;;;;;5025362;28;20008;-85
2022/07/25 05:59:50;;;;;;;;;;;;;;;;;;5025403;28;19913;-85
2022/07/25 06:02:16;;;;;;;;;;;;;;;;;;5024711;28;19920;-84
2022/07/25 06:04:41;;;;;;;;;;;;;;;;;;5027067;28;20271;-85
2022/07/25 06:07:06;;;;;;;;;;;;;;;;;;5019284;28;20013;-85
2022/07/25 06:09:31;;;;;;;;;;;;;;;;;;5026466;28;19975;-84
2022/07/25 06:11:56;;;;;;;;;;;;;;;;;;5023916;28;19917;-85
2022/07/25 06:14:22;;;;;;;;;;;;;;;;;;5026300;28;20363;-84
2022/07/25 06:16:47;;;;;;;;;;;;;;;;;;5023507;28;19929;-84
2022/07/25 06:19:12;;;;;;;;;;;;;;;;;;5026289;28;20272;-84
2022/07/25 06:21:37;;;;;;;;;;;;;;;;;;5022491;28;20325;-84
2022/07/25 06:24:02;;;;;;;;;;;;;;;;;;5026629;28;19921;-84
2022/07/25 06:26:27;;;;;;;;;;;;;;;;;;5024898;28;20431;-84
2022/07/25 06:28:53;;;;;;;;;;;;;;;;;;5025490;28;19924;-85
2022/07/25 06:31:18;;;;;;;;;;;;;;;;;;5024799;28;19917;-84
2022/07/25 06:33:43;;;;;;;;;;;;;;;;;;5025539;28;20007;-85
2022/07/25 06:36:09;;;;;;;;;;;;;;;;;;5024240;28;19917;-85
2022/07/25 06:38:34;;;;;;;;;;;;;;;;;;5025404;28;19968;-85
2022/07/25 06:40:59;;;;;;;;;;;;;;;;;;5025758;28;19921;-85
2022/07/25 06:43:24;;;;;;;;;;;;;;;;;;5024141;28;19937;-86
2022/07/25 06:45:49;;;;;;;;;;;;;;;;;;5026035;28;19996;-86
2022/07/25 06:48:15;;;;;;;;;;;;;;;;;;5024348;28;19913;-85
2022/07/25 06:50:40;;;;;;;;;;;;;;;;;;5025979;28;19921;-85
2022/07/25 06:53:05;;;;;;;;;;;;;;;;;;5023703;28;20405;-85
2022/07/25 06:55:30;;;;;;;;;;;;;;;;;;5025826;28;19917;-86
2022/07/25 06:57:55;;;;;;;;;;;;;;;;;;5024364;28;20330;-86
2022/07/25 07:00:21;;;;;;;;;;;;;;;;;;5009684;28;19920;-85
2022/07/25 07:02:46;;;;;;;;;;;;;;;;;;5026303;28;20157;-86
2022/07/25 07:05:11;;;;;;;;;;;;;;;;;;5029989;28;19919;-86
2022/07/25 07:07:36;;;;;;;;;;;;;;;;;;5028250;28;21254;-87
2022/07/25 07:10:01;;;;;;;;;;;;;;;;;;5028681;28;20317;-87
2022/07/25 07:12:26;;;;;;;;;;;;;;;;;;5008085;28;19925;-87
2022/07/25 07:14:52;;;;;;;;;;;;;;;;;;5028240;28;20066;-86
2022/07/25 07:17:17;;;;;;;;;;;;;;;;;;5028968;28;19913;-86
2022/07/25 07:19:44;;;;;;;;;;;;;;;;;;5029800;28;19953;-87
2022/07/25 07:22:09;;;;;;;;;;;;;;;;;;5028325;28;20039;-88
2022/07/25 07:24:34;;;;;;;;;;;;;;;;;;5029637;28;20055;-86
2022/07/25 07:27:00;;;;;;;;;;;;;;;;;;5027143;28;20395;-86
2022/07/25 07:29:25;;;;;;;;;;;;;;;;;;5029627;28;19913;-88
2022/07/25 07:31:50;;;;;;;;;;;;;;;;;;5028256;28;19971;-89
2022/07/25 07:34:15;;;;;;;;;;;;;;;;;;5029313;28;20422;-86
2022/07/25 07:36:40;;;;;;;;;;;;;;;;;;5025199;28;19913;-86
2022/07/25 07:39:06;;;;;;;;;;;;;;;;;;5027464;28;19917;-87
2022/07/25 07:41:32;;;;;;;;;;;;;;;;;;5029510;28;20238;-87
2022/07/25 07:43:57;;;;;;;;;;;;;;;;;;5028114;28;19913;-86
2022/07/25 07:46:22;;;;;;;;;;;;;;;;;;5028594;28;19935;-85
2022/07/25 07:48:47;;;;;;;;;;;;;;;;;;5026266;28;19955;-86
2022/07/25 07:51:12;;;;;;;;;;;;;;;;;;5028777;28;19916;-86
2022/07/25 07:56:21;;;;;;;;;;;;;;;;;;5027174;28;19967;-87
2022/07/25 07:58:46;;;;;;;;;;;;;;;;;;5008168;28;19913;-86
2022/07/25 08:01:11;;;;;;;;;;;;;;;;;;5029433;28;19917;-86
2022/07/25 08:03:37;;;;;;;;;;;;;;;;;;5027041;28;20460;-86
2022/07/25 08:06:02;;;;;;;;;;;;;;;;;;5029309;28;19928;-86
2022/07/25 08:08:27;;;;;;;;;;;;;;;;;;5027938;28;20330;-89
2022/07/25 08:10:52;;;;;;;;;;;;;;;;;;5028209;28;20009;-89
2022/07/25 08:13:17;;;;;;;;;;;;;;;;;;5026914;28;19921;-89
2022/07/25 08:15:43;;;;;;;;;;;;;;;;;;5027863;28;20500;-88
2022/07/25 08:18:08;;;;;;;;;;;;;;;;;;5028120;28;19913;-88
2022/07/25 08:20:33;;;;;;;;;;;;;;;;;;5029225;28;19960;-87
2022/07/25 08:22:58;;;;;;;;;;;;;;;;;;5008810;28;20421;-88
2022/07/25 08:25:24;;;;;;;;;;;;;;;;;;5028375;28;19913;-88
2022/07/25 08:27:49;;;;;;;;;;;;;;;;;;5027837;28;19945;-87
2022/07/25 08:30:14;;;;;;;;;;;;;;;;;;5026423;28;20008;-90
2022/07/25 08:32:39;;;;;;;;;;;;;;;;;;5027362;28;19963;-90
2022/07/25 08:35:04;;;;;;;;;;;;;;;;;;5029594;28;19976;-89
2022/07/25 08:37:30;;;;;;;;;;;;;;;;;;5027940;28;20313;-89
2022/07/25 08:39:55;;;;;;;;;;;;;;;;;;5028538;28;20400;-90
2022/07/25 08:42:20;;;;;;;;;;;;;;;;;;5027132;28;19913;-89
2022/07/25 08:44:45;;;;;;;;;;;;;;;;;;5028919;28;19936;-90
2022/07/25 08:47:14;;;;;;;;;;;;;;;;;;5028261;28;19917;-90
2022/07/25 08:49:39;;;;;;;;;;;;;;;;;;5008223;28;19956;-89
2022/07/25 08:52:04;;;;;;;;;;;;;;;;;;5025578;28;20743;-88
2022/07/25 08:54:30;;;;;;;;;;;;;;;;;;5025278;28;20058;-87
2022/07/25 08:56:55;;;;;;;;;;;;;;;;;;5028312;28;19913;-89
2022/07/25 08:59:20;;;;;;;;;;;;;;;;;;5027798;28;19996;-88
2022/07/25 09:01:45;;;;;;;;;;;;;;;;;;5029111;28;19942;-91
2022/07/25 09:04:10;;;;;;;;;;;;;;;;;;5027410;28;20001;-89
2022/07/25 09:06:36;;;;;;;;;;;;;;;;;;5024221;28;20019;-90
2022/07/25 09:09:04;;;;;;;;;;;;;;;;;;5028397;28;19917;-89
2022/07/25 09:11:30;;;;;;;;;;;;;;;;;;5027049;28;20060;-87
2022/07/25 09:13:55;;;;;;;;;;;;;;;;;;5028502;28;20048;-89
2022/07/25 09:16:20;;;;;;;;;;;;;;;;;;5028910;28;20379;-90
2022/07/25 09:18:45;;;;;;;;;;;;;;;;;;5025594;28;19913;-87
2022/07/25 09:21:10;;;;;;;;;;;;;;;;;;5025953;28;19913;-90
2022/07/25 09:23:35;;;;;;;;;;;;;;;;;;5022377;28;19909;-90
2022/07/25 09:26:01;;;;;;;;;;;;;;;;;;5025809;28;19914;-89
2022/07/25 09:28:26;;;;;;;;;;;;;;;;;;5028257;28;19913;-90
2022/07/25 09:30:52;;;;;;;;;;;;;;;;;;5027251;28;20361;-88
2022/07/25 09:33:17;;;;;;;;;;;;;;;;;;5028532;28;20314;-89
2022/07/25 09:35:42;;;;;;;;;;;;;;;;;;5028703;28;20338;-91
2022/07/25 09:38:07;;;;;;;;;;;;;;;;;;5021342;28;20008;-91
2022/07/25 09:40:32;;;;;;;;;;;;;;;;;;5024512;28;19923;-93
2022/07/25 09:42:58;;;;;;;;;;;;;;;;;;5026173;28;20350;-89
2022/07/25 09:45:23;;;;;;;;;;;;;;;;;;5006938;28;19953;-90
2022/07/25 09:47:49;;;;;;;;;;;;;;;;;;5017999;28;19992;-91
2022/07/25 09:50:14;;;;;;;;;;;;;;;;;;5020697;28;20008;-89
2022/07/25 09:52:39;;;;;;;;;;;;;;;;;;5028263;28;19979;-88
2022/07/25 09:55:06;;;;;;;;;;;;;;;;;;5028500;28;19959;-91
2022/07/25 09:57:32;;;;;;;;;;;;;;;;;;5021965;28;19913;-91
2022/07/25 09:59:57;;;;;;;;;;;;;;;;;;5026885;28;19913;-91
2022/07/25 10:02:22;;;;;;;;;;;;;;;;;;5020887;28;20445;-91
2022/07/25 10:04:47;;;;;;;;;;;;;;;;;;5028671;28;19948;-88
2022/07/25 10:07:13;;;;;;;;;;;;;;;;;;5029620;28;19913;-89
2022/07/25 10:09:38;;;;;;;;;;;;;;;;;;5023267;28;19909;-87
2022/07/25 10:12:04;;;;;;;;;;;;;;;;;;5020372;28;19918;-91
2022/07/25 10:14:29;;;;;;;;;;;;;;;;;;5025280;28;19909;-90
2022/07/25 10:16:55;;;;;;;;;;;;;;;;;;5004143;28;19913;-91
2022/07/25 10:19:20;;;;;;;;;;;;;;;;;;5010398;28;19924;-91
2022/07/25 10:21:46;;;;;;;;;;;;;;;;;;5025835;28;19937;-92
2022/07/25 10:24:11;;;;;;;;;;;;;;;;;;5026032;28;19909;-87
2022/07/25 10:26:38;;;;;;;;;;;;;;;;;;5005662;28;20432;-89
2022/07/25 10:29:03;;;;;;;;;;;;;;;;;;5024499;28;19960;-89
2022/07/25 10:31:28;;;;;;;;;;;;;;;;;;5028745;28;19948;-88
2022/07/25 10:33:53;;;;;;;;;;;;;;;;;;5027416;28;20076;-91
2022/07/25 10:36:19;;;;;;;;;;;;;;;;;;5029209;28;19909;-89
2022/07/25 10:38:45;;;;;;;;;;;;;;;;;;5029885;28;19917;-87
2022/07/25 10:41:10;;;;;;;;;;;;;;;;;;5012699;28;20142;-90
2022/07/25 10:43:35;;;;;;;;;;;;;;;;;;5034428;28;19909;-89
2022/07/25 10:46:00;;;;;;;;;;;;;;;;;;5032153;28;19920;-89
2022/07/25 10:48:25;;;;;;;;;;;;;;;;;;5027612;28;19921;-88
2022/07/25 10:50:51;;;;;;;;;;;;;;;;;;5023338;28;20160;-89
2022/07/25 10:53:16;;;;;;;;;;;;;;;;;;5023888;28;19924;-90
2022/07/25 10:55:42;;;;;;;;;;;;;;;;;;5028216;28;19909;-91
2022/07/25 10:58:07;;;;;;;;;;;;;;;;;;5029666;28;19917;-88
2022/07/25 11:00:32;;;;;;;;;;;;;;;;;;5011689;28;19909;-91
2022/07/25 11:02:57;;;;;;;;;;;;;;;;;;5034270;28;19913;-92
2022/07/25 11:05:23;;;;;;;;;;;;;;;;;;5032907;28;19909;-88
2022/07/25 11:07:48;;;;;;;;;;;;;;;;;;5029547;28;20008;-88
2022/07/25 11:10:13;;;;;;;;;;;;;;;;;;5013669;28;19920;-91
2022/07/25 11:12:38;;;;;;;;;;;;;;;;;;5031268;28;19921;-90
2022/07/25 11:15:03;;;;;;;;;;;;;;;;;;5026115;28;19968;-90
2022/07/25 11:17:29;;;;;;;;;;;;;;;;;;5028963;28;20307;-91
2022/07/25 11:19:54;;;;;;;;;;;;;;;;;;5009885;28;19923;-90
2022/07/25 11:22:19;;;;;;;;;;;;;;;;;;5027533;28;19910;-90
2022/07/25 11:24:44;;;;;;;;;;;;;;;;;;5025187;28;19913;-90
2022/07/25 11:27:10;;;;;;;;;;;;;;;;;;5030100;28;20387;-89
2022/07/25 11:29:37;;;;;;;;;;;;;;;;;;5026299;28;20627;-91
2022/07/25 11:32:02;;;;;;;;;;;;;;;;;;5030265;28;20325;-89
2022/07/25 11:34:27;;;;;;;;;;;;;;;;;;5023350;28;19915;-90
2022/07/25 11:36:55;;;;;;;;;;;;;;;;;;5008952;28;19940;-91
2022/07/25 11:39:21;;;;;;;;;;;;;;;;;;5025028;28;20324;-90
2022/07/25 11:41:46;;;;;;;;;;;;;;;;;;5027547;28;19917;-90
2022/07/25 11:44:11;;;;;;;;;;;;;;;;;;5028245;28;19913;-91
2022/07/25 11:46:36;;;;;;;;;;;;;;;;;;5029985;28;19916;-90
2022/07/25 11:49:01;;;;;;;;;;;;;;;;;;5005319;28;19960;-91
2022/07/25 11:51:27;;;;;;;;;;;;;;;;;;5004495;28;19917;-90
2022/07/25 11:53:52;;;;;;;;;;;;;;;;;;5028656;28;20011;-93
2022/07/25 11:56:17;;;;;;;;;;;;;;;;;;5029355;28;20274;-92
2022/07/25 11:58:42;;;;;;;;;;;;;;;;;;5008326;28;19913;-90
2022/07/25 12:01:08;;;;;;;;;;;;;;;;;;5027577;28;19913;-91
2022/07/25 12:03:33;;;;;;;;;;;;;;;;;;5031367;28;19913;-92
2022/07/25 12:05:58;;;;;;;;;;;;;;;;;;5028488;28;20379;-92
2022/07/25 12:08:23;;;;;;;;;;;;;;;;;;5029495;28;19909;-93
2022/07/25 12:10:54;;;;;;;;;;;;;;;;;;5007461;28;19963;-90
2022/07/25 12:13:19;;;;;;;;;;;;;;;;;;5026090;28;19913;-88
2022/07/25 12:15:44;;;;;;;;;;;;;;;;;;5032052;28;20279;-93
2022/07/25 12:18:11;;;;;;;;;;;;;;;;;;5028863;28;20212;-89
2022/07/25 12:20:36;;;;;;;;;;;;;;;;;;5027812;28;19935;-89
2022/07/25 12:23:03;;;;;;;;;;;;;;;;;;5028051;28;20429;-92
2022/07/25 12:25:28;;;;;;;;;;;;;;;;;;5030084;28;19913;-90
2022/07/25 12:27:53;;;;;;;;;;;;;;;;;;5026690;28;20444;-91
2022/07/25 12:30:18;;;;;;;;;;;;;;;;;;5034155;28;20111;-92
2022/07/25 12:32:44;;;;;;;;;;;;;;;;;;5026632;28;20429;-90
2022/07/25 12:35:09;;;;;;;;;;;;;;;;;;5029443;28;19913;-90
2022/07/25 12:37:34;;;;;;;;;;;;;;;;;;5024601;28;19909;-89
2022/07/25 12:39:59;;;;;;;;;;;;;;;;;;5027951;28;19925;-91
2022/07/25 12:42:25;;;;;;;;;;;;;;;;;;5026515;28;19976;-90
2022/07/25 12:44:50;;;;;;;;;;;;;;;;;;5008794;28;19959;-93
2022/07/25 12:47:15;;;;;;;;;;;;;;;;;;5012491;28;19913;-91
2022/07/25 12:49:40;;;;;;;;;;;;;;;;;;5026147;28;19921;-90
2022/07/25 12:52:06;;;;;;;;;;;;;;;;;;5024848;28;20319;-89
2022/07/25 12:54:31;;;;;;;;;;;;;;;;;;5026793;28;20000;-92
2022/07/25 12:56:57;;;;;;;;;;;;;;;;;;5025387;28;20179;-92
2022/07/25 12:59:22;;;;;;;;;;;;;;;;;;5027862;28;19913;-89
2022/07/25 13:01:47;;;;;;;;;;;;;;;;;;5022247;28;20374;-90
2022/07/25 13:04:12;;;;;;;;;;;;;;;;;;5028086;28;19913;-91
2022/07/25 13:06:38;;;;;;;;;;;;;;;;;;5027091;28;19937;-92
2022/07/25 13:09:03;;;;;;;;;;;;;;;;;;5027930;28;19917;-89
2022/07/25 13:11:28;;;;;;;;;;;;;;;;;;5003594;28;19924;-90
2022/07/25 13:13:53;;;;;;;;;;;;;;;;;;5008845;28;20012;-90
2022/07/25 13:16:18;;;;;;;;;;;;;;;;;;5027695;28;19920;-89
2022/07/25 13:18:43;;;;;;;;;;;;;;;;;;5009247;28;19913;-92
2022/07/25 13:21:09;;;;;;;;;;;;;;;;;;5026160;28;19929;-92
2022/07/25 13:23:34;;;;;;;;;;;;;;;;;;5028074;28;20008;-92
2022/07/25 13:26:00;;;;;;;;;;;;;;;;;;5026128;28;19922;-92
2022/07/25 13:28:25;;;;;;;;;;;;;;;;;;5027504;28;20441;-88
2022/07/25 13:30:50;;;;;;;;;;;;;;;;;;5025579;28;19947;-89
2022/07/25 13:33:15;;;;;;;;;;;;;;;;;;5026096;28;19920;-90
2022/07/25 13:35:40;;;;;;;;;;;;;;;;;;5027395;28;20015;-91
2022/07/25 13:38:06;;;;;;;;;;;;;;;;;;5025099;28;19917;-92
2022/07/25 13:40:31;;;;;;;;;;;;;;;;;;5027690;28;19917;-89
2022/07/25 13:42:56;;;;;;;;;;;;;;;;;;5026215;28;19920;-91
2022/07/25 13:45:21;;;;;;;;;;;;;;;;;;5028695;28;19913;-90
2022/07/25 13:47:46;;;;;;;;;;;;;;;;;;5024893;28;20310;-90
2022/07/25 13:50:12;;;;;;;;;;;;;;;;;;5028474;28;20363;-90
2022/07/25 13:52:37;;;;;;;;;;;;;;;;;;5025895;28;19917;-89
2022/07/25 13:55:02;;;;;;;;;;;;;;;;;;5026738;28;20383;-92
2022/07/25 13:57:27;;;;;;;;;;;;;;;;;;5024141;28;19945;-90
2022/07/25 13:59:52;;;;;;;;;;;;;;;;;;4999901;28;20329;-92
2022/07/25 14:02:18;;;;;;;;;;;;;;;;;;5028183;28;20375;-88
2022/07/25 14:04:44;;;;;;;;;;;;;;;;;;5024209;28;19967;-91
2022/07/25 14:07:09;;;;;;;;;;;;;;;;;;5027482;28;19913;-89
2022/07/25 14:09:35;;;;;;;;;;;;;;;;;;5026443;28;20385;-92
2022/07/25 14:12:00;;;;;;;;;;;;;;;;;;5027121;28;19980;-91
2022/07/25 14:14:25;;;;;;;;;;;;;;;;;;5001876;28;19920;-92
2022/07/25 14:16:51;;;;;;;;;;;;;;;;;;5008590;28;20298;-89
2022/07/25 14:19:16;;;;;;;;;;;;;;;;;;5026738;28;19921;-89
2022/07/25 14:21:42;;;;;;;;;;;;;;;;;;5026797;28;20016;-89
2022/07/25 14:24:07;;;;;;;;;;;;;;;;;;5024183;28;20371;-91
2022/07/25 14:26:32;;;;;;;;;;;;;;;;;;5025231;28;19913;-89
2022/07/25 14:28:57;;;;;;;;;;;;;;;;;;5024913;28;19924;-88
2022/07/25 14:31:22;;;;;;;;;;;;;;;;;;5024897;28;19931;-89
2022/07/25 14:33:48;;;;;;;;;;;;;;;;;;5025896;28;19913;-89
2022/07/25 14:36:13;;;;;;;;;;;;;;;;;;5024957;28;20433;-92
2022/07/25 14:38:38;;;;;;;;;;;;;;;;;;5024555;28;20744;-90
2022/07/25 14:41:03;;;;;;;;;;;;;;;;;;5025519;28;20346;-90
2022/07/25 14:43:28;;;;;;;;;;;;;;;;;;5025569;28;19913;-88
2022/07/25 14:45:53;;;;;;;;;;;;;;;;;;5025004;28;19913;-91
2022/07/25 14:48:19;;;;;;;;;;;;;;;;;;5028607;28;19940;-91
2022/07/25 14:50:44;;;;;;;;;;;;;;;;;;5025953;28;19959;-88
2022/07/25 14:53:12;;;;;;;;;;;;;;;;;;5025844;28;19967;-92
2022/07/25 14:55:37;;;;;;;;;;;;;;;;;;5026887;28;19960;-90
2022/07/25 14:58:02;;;;;;;;;;;;;;;;;;5027566;28;19980;-90
2022/07/25 15:00:28;;;;;;;;;;;;;;;;;;5025438;28;20379;-91
2022/07/25 15:02:53;;;;;;;;;;;;;;;;;;5025125;28;20414;-91
2022/07/25 15:05:18;;;;;;;;;;;;;;;;;;5028375;28;19947;-91
2022/07/25 15:07:43;;;;;;;;;;;;;;;;;;5024263;28;19953;-91
2022/07/25 15:10:08;;;;;;;;;;;;;;;;;;5027712;28;20282;-91
2022/07/25 15:12:34;;;;;;;;;;;;;;;;;;5006509;28;19971;-92
2022/07/25 15:15:01;;;;;;;;;;;;;;;;;;5024831;28;20204;-91
2022/07/25 15:17:26;;;;;;;;;;;;;;;;;;5027834;28;19913;-92
2022/07/25 15:19:51;;;;;;;;;;;;;;;;;;5026122;28;19921;-89
2022/07/25 15:22:16;;;;;;;;;;;;;;;;;;5029057;28;19949;-91
2022/07/25 15:24:42;;;;;;;;;;;;;;;;;;5030126;28;19914;-90
2022/07/25 15:27:08;;;;;;;;;;;;;;;;;;5028493;28;19924;-90
2022/07/25 15:29:33;;;;;;;;;;;;;;;;;;5030818;28;20274;-91
2022/07/25 15:31:59;;;;;;;;;;;;;;;;;;5028440;28;19925;-91
2022/07/25 15:34:25;;;;;;;;;;;;;;;;;;5031455;28;20278;-90
2022/07/25 15:36:51;;;;;;;;;;;;;;;;;;5028483;28;19963;-89
2022/07/25 15:39:16;;;;;;;;;;;;;;;;;;5030790;28;19913;-88
2022/07/25 15:41:41;;;;;;;;;;;;;;;;;;5029255;28;19917;-90
2022/07/25 15:44:06;;;;;;;;;;;;;;;;;;5029919;28;19960;-90
2022/07/25 15:46:32;;;;;;;;;;;;;;;;;;5027315;28;19913;-89
2022/07/25 15:48:57;;;;;;;;;;;;;;;;;;5029128;28;19913;-88
2022/07/25 15:51:22;;;;;;;;;;;;;;;;;;5028683;28;19917;-89
2022/07/25 15:53:48;;;;;;;;;;;;;;;;;;5010217;28;19925;-88
2022/07/25 15:56:13;;;;;;;;;;;;;;;;;;5031092;28;20396;-88
2022/07/25 15:58:38;;;;;;;;;;;;;;;;;;5028925;28;20092;-89
2022/07/25 16:01:03;;;;;;;;;;;;;;;;;;5027727;28;19935;-89
2022/07/25 16:03:29;;;;;;;;;;;;;;;;;;5029611;28;20039;-89
2022/07/25 16:05:55;;;;;;;;;;;;;;;;;;5026798;28;19995;-89
2022/07/25 16:08:21;;;;;;;;;;;;;;;;;;5028651;28;19921;-88
2022/07/25 16:10:46;;;;;;;;;;;;;;;;;;5028663;28;19920;-89
2022/07/25 16:13:11;;;;;;;;;;;;;;;;;;5027596;28;19996;-89
2022/07/25 16:15:36;;;;;;;;;;;;;;;;;;5024639;28;19917;-89
2022/07/25 16:18:01;;;;;;;;;;;;;;;;;;5028533;28;19963;-89
2022/07/25 16:20:27;;;;;;;;;;;;;;;;;;5028355;28;19913;-88
2022/07/25 16:22:54;;;;;;;;;;;;;;;;;;5027585;28;19967;-89
2022/07/25 16:25:19;;;;;;;;;;;;;;;;;;5029385;28;19917;-88
2022/07/25 16:27:45;;;;;;;;;;;;;;;;;;5026385;28;20000;-89
2022/07/25 16:30:10;;;;;;;;;;;;;;;;;;5028560;28;19971;-89
2022/07/25 16:32:35;;;;;;;;;;;;;;;;;;5028002;28;20032;-89
2022/07/25 16:35:00;;;;;;;;;;;;;;;;;;5027693;28;19925;-89
2022/07/25 16:37:26;;;;;;;;;;;;;;;;;;5027930;28;19913;-88